Time;durP1;ratioP1;P1;durP2;ratioP2;P2;SDS_P1;SDS_P2;PMS_P1;PMS_P2;Temp;Humidity;BMP_temperature;BMP_pressure;BME280_temperature;BME280_humidity;BME280_pressure;Samples;Min_cycle;Max_cycle;Signal;HPM_P1;HPM_P2
2023/05/25 00:00:26;;;;;;;14.20;5.15;;;;;;;;;;5006072;28;20060;-70
2023/05/25 00:02:53;;;;;;;11.60;4.55;;;;;;;;;;5005321;28;20049;-73
2023/05/25 00:05:19;;;;;;;17.75;4.55;;;;;;;;;;4995251;28;20131;-69
2023/05/25 00:07:46;;;;;;;16.83;4.60;;;;;;;;;;5009579;28;20045;-75
2023/05/25 00:10:12;;;;;;;13.88;5.05;;;;;;;;;;4998757;28;20053;-70
2023/05/25 00:12:38;;;;;;;16.88;5.28;;;;;;;;;;5010415;28;20156;-70
2023/05/25 00:15:05;;;;;;;13.35;5.10;;;;;;;;;;5011102;28;20045;-72
2023/05/25 00:17:32;;;;;;;13.40;4.90;;;;;;;;;;5007249;28;20060;-75
2023/05/25 00:20:07;;;;;;;15.32;5.97;;;;;;;;;;4982063;28;20072;-76
2023/05/25 00:22:34;;;;;;;15.15;4.68;;;;;;;;;;4999318;28;20062;-74
2023/05/25 00:25:00;;;;;;;15.55;5.45;;;;;;;;;;5006726;28;20057;-75
2023/05/25 00:27:27;;;;;;;11.40;4.13;;;;;;;;;;4995143;28;20053;-73
2023/05/25 00:29:53;;;;;;;12.82;4.53;;;;;;;;;;5000075;28;20054;-72
2023/05/25 00:32:19;;;;;;;8.88;3.50;;;;;;;;;;4995354;28;20049;-72
2023/05/25 00:34:46;;;;;;;5.90;1.90;;;;;;;;;;5005151;28;20068;-74
2023/05/25 00:37:12;;;;;;;4.28;2.15;;;;;;;;;;5006182;28;20388;-71
2023/05/25 00:39:38;;;;;;;6.55;3.00;;;;;;;;;;5006700;28;20103;-71
2023/05/25 00:42:06;;;;;;;7.97;3.90;;;3.00;99.90;;;;;;5005736;28;20053;-70
2023/05/25 00:44:32;;;;;;;12.32;4.47;;;;;;;;;;5010259;28;20494;-70
2023/05/25 00:46:58;;;;;;;7.95;3.78;;;6.00;99.90;;;;;;5011060;28;20049;-71
2023/05/25 00:49:25;;;;;;;6.40;3.00;;;;;;;;;;5002744;28;20116;-73
2023/05/25 00:51:52;;;;;;;5.78;2.28;;;;;;;;;;5004530;28;20601;-69
2023/05/25 00:54:19;;;;;;;8.13;3.95;;;;;;;;;;4994248;28;20134;-69
2023/05/25 00:56:52;;;;;;;4.97;2.35;;;;;;;;;;5010886;28;20058;-70
2023/05/25 00:59:45;;;;;;;6.40;2.58;;;5.90;99.90;;;;;;4994639;28;20380;-73
2023/05/25 01:02:16;;;;;;;3.90;2.20;;;5.80;99.90;;;;;;4997640;28;20185;-74
2023/05/25 01:04:53;;;;;;;3.38;2.20;;;5.80;99.90;;;;;;4999441;28;20081;-71
2023/05/25 01:07:25;;;;;;;3.25;2.00;;;5.70;99.90;;;;;;5011169;28;20054;-74
2023/05/25 01:10:01;;;;;;;5.45;2.15;;;5.70;99.90;;;;;;5010579;28;20175;-71
2023/05/25 01:12:35;;;;;;;5.88;1.85;;;5.50;99.90;;;;;;5004380;28;20136;-73
2023/05/25 01:15:01;;;;;;;4.53;2.53;;;;;;;;;;4989452;28;20049;-69
2023/05/25 01:17:27;;;;;;;22.83;2.17;;;;;;;;;;5012284;28;20056;-72
2023/05/25 01:19:54;;;;;;;5.88;1.80;;;;;;;;;;5001128;28;20057;-72
2023/05/25 01:22:21;;;;;;;4.30;2.13;;;;;;;;;;5005792;28;20057;-71
2023/05/25 01:25:01;;;;;;;4.03;1.88;;;;;;;;;;5000240;28;20061;-72
2023/05/25 01:27:47;;;;;;;9.60;3.05;;;5.50;99.90;;;;;;5009142;28;20099;-71
2023/05/25 01:30:15;;;;;;;6.13;2.50;;;5.40;99.90;;;;;;4979192;28;20081;-71
2023/05/25 01:32:44;;;;;;;6.30;2.17;;;5.40;99.90;;;;;;5012170;28;20524;-71
2023/05/25 01:35:12;;;;;;;6.68;2.17;;;5.40;99.90;;;;;;5006552;28;20128;-73
2023/05/25 01:37:39;;;;;;;5.22;2.10;;;;;;;;;;4994180;28;20092;-69
2023/05/25 01:40:05;;;;;;;6.63;2.00;;;5.20;99.90;;;;;;4994961;28;20481;-70
2023/05/25 01:42:31;;;;;;;5.55;1.80;;;;;;;;;;5012817;28;20052;-69
2023/05/25 01:44:58;;;;;;;4.80;2.00;;;5.50;99.90;;;;;;5013402;28;20405;-73
2023/05/25 01:48:02;;;;;;;4.85;2.53;;;5.40;99.90;;;;;;5014133;28;20230;-74
2023/05/25 01:50:28;;;;;;;12.70;2.83;;;;;;;;;;4994698;28;20072;-70
2023/05/25 01:53:17;;;;;;;4.72;2.42;;;5.30;99.90;;;;;;4999917;28;20063;-70
2023/05/25 01:55:59;;;;;;;22.27;4.28;;;5.40;99.90;;;;;;5013470;28;20056;-72
2023/05/25 01:58:28;;;;;;;16.40;2.72;;;5.40;99.90;;;;;;5003819;28;20424;-73
2023/05/25 02:00:55;;;;;;;10.52;1.85;;;5.20;99.90;;;;;;5001175;28;20072;-71
2023/05/25 02:03:21;;;;;;;4.47;1.40;;;;;;;;;;5014234;28;20057;-70
2023/05/25 02:05:47;;;;;;;14.57;2.05;;;;;;;;;;4995189;28;20127;-73
2023/05/25 02:08:14;;;;;;;3.85;1.45;;;;;;;;;;5005857;28;20046;-72
2023/05/25 02:10:40;;;;;;;3.53;1.50;;;;;;;;;;5013340;28;20050;-70
2023/05/25 02:13:06;;;;;;;3.05;1.50;;;;;;;;;;5013088;28;20461;-71
2023/05/25 02:15:32;;;;;;;4.10;1.95;;;5.20;99.90;;;;;;5013822;28;20045;-70
2023/05/25 02:17:59;;;;;;;2.78;1.63;;;;;;;;;;5010375;28;20160;-73
2023/05/25 02:20:26;;;;;;;4.60;2.30;;;;;;;;;;4980104;28;20716;-71
2023/05/25 02:22:53;;;;;;;4.72;1.90;;;;;;;;;;4987315;28;20952;-73
2023/05/25 02:25:19;;;;;;;13.32;4.10;;;;;;;;;;5001330;28;20061;-72
2023/05/25 02:27:45;;;;;;;7.88;3.00;;;;;;;;;;5005514;28;20088;-70
2023/05/25 02:30:11;;;;;;;10.85;4.28;;;;;;;;;;5013456;28;20049;-73
2023/05/25 02:32:37;;;;;;;9.27;4.43;;;;;;;;;;4997353;28;20103;-70
2023/05/25 02:35:03;;;;;;;8.70;4.07;;;;;;;;;;5012796;28;20696;-70
2023/05/25 02:37:30;;;;;;;14.45;5.43;;;;;;;;;;4997043;28;20057;-72
2023/05/25 02:39:56;;;;;;;10.27;4.63;;;;;;;;;;5013556;28;20045;-68
2023/05/25 02:42:22;;;;;;;8.57;4.57;;;;;;;;;;4990010;28;20049;-73
2023/05/25 02:44:48;;;;;;;11.45;5.45;;;;;;;;;;4996477;28;20119;-71
2023/05/25 02:47:16;;;;;;;12.75;6.00;;;;;;;;;;5012587;28;20150;-72
2023/05/25 02:49:42;;;;;;;11.75;4.53;;;;;;;;;;5004441;28;20136;-72
2023/05/25 02:52:09;;;;;;;11.68;4.65;;;;;;;;;;5008206;28;20129;-70
2023/05/25 02:54:35;;;;;;;6.60;3.28;;;;;;;;;;4979779;28;20053;-71
2023/05/25 02:57:02;;;;;;;6.50;3.78;;;5.20;99.90;;;;;;5008330;28;20044;-70
2023/05/25 02:59:28;;;;;;;8.77;3.00;;;;;;;;;;5012875;28;20063;-69
2023/05/25 03:01:54;;;;;;;8.70;3.20;;;;;;;;;;5012383;28;20077;-72
2023/05/25 03:04:20;;;;;;;10.70;3.92;;;;;;;;;;4996853;28;20066;-72
2023/05/25 03:06:47;;;;;;;8.93;3.15;;;;;;;;;;5005255;28;20046;-71
2023/05/25 03:09:13;;;;;;;7.45;3.53;;;;;;;;;;5012617;28;20559;-69
2023/05/25 03:11:39;;;;;;;8.00;4.07;;;;;;;;;;5011898;28;20116;-69
2023/05/25 03:14:05;;;;;;;11.00;4.43;;;;;;;;;;4995640;28;20111;-72
2023/05/25 03:16:34;;;;;;;9.32;4.35;;;;;;;;;;5012780;28;20401;-72
2023/05/25 03:19:01;;;;;;;12.05;4.57;;;5.00;99.90;;;;;;5012604;28;20058;-71
2023/05/25 03:21:28;;;;;;;11.10;4.00;;;5.00;99.90;;;;;;4997200;28;20140;-72
2023/05/25 03:23:54;;;;;;;7.82;4.50;;;;;;;;;;4990690;28;20088;-71
2023/05/25 03:26:20;;;;;;;9.52;4.22;;;;;;;;;;5009004;28;20053;-70
2023/05/25 03:28:46;;;;;;;7.68;4.35;;;;;;;;;;5004658;28;20041;-70
2023/05/25 03:31:12;;;;;;;11.18;4.65;;;;;;;;;;5011868;28;20652;-69
2023/05/25 03:33:39;;;;;;;8.10;3.78;;;;;;;;;;5009707;28;20714;-73
2023/05/25 03:36:08;;;;;;;8.70;5.35;;;4.90;99.90;;;;;;5010072;28;20064;-71
2023/05/25 03:38:36;;;;;;;13.20;4.70;;;4.90;99.90;;;;;;4982171;28;20041;-73
2023/05/25 03:41:02;;;;;;;7.28;4.50;;;;;;;;;;4999926;28;20061;-70
2023/05/25 03:43:28;;;;;;;10.32;4.82;;;;;;;;;;5010794;28;20574;-69
2023/05/25 03:45:54;;;;;;;11.57;4.57;;;;;;;;;;5011158;28;20053;-70
2023/05/25 03:48:20;;;;;;;13.60;4.78;;;;;;;;;;4984588;28;20177;-73
2023/05/25 03:50:46;;;;;;;9.05;3.83;;;;;;;;;;5004125;28;20049;-72
2023/05/25 03:53:12;;;;;;;11.70;5.90;;;;;;;;;;5008162;28;20053;-73
2023/05/25 03:55:38;;;;;;;9.10;4.95;;;;;;;;;;5008913;28;20153;-72
2023/05/25 03:58:04;;;;;;;6.90;4.18;;;;;;;;;;5011528;28;20585;-72
2023/05/25 04:00:31;;;;;;;8.68;4.75;;;;;;;;;;5011255;28;20156;-72
2023/05/25 04:02:57;;;;;;;10.55;4.50;;;;;;;;;;5011318;28;20241;-71
2023/05/25 04:05:23;;;;;;;12.00;5.82;;;;;;;;;;5001898;28;20104;-70
2023/05/25 04:07:51;;;;;;;11.65;5.57;;;;;;;;;;4989699;28;20542;-72
2023/05/25 04:10:17;;;;;;;15.68;7.05;;;;;;;;;;5012254;28;20099;-70
2023/05/25 04:12:43;;;;;;;19.27;7.18;;;;;;;;;;5011663;28;20051;-72
2023/05/25 04:15:11;;;;;;;25.48;7.60;;;;;;;;;;5011431;28;20136;-72
2023/05/25 04:17:37;;;;;;;19.90;8.65;;;;;;;;;;5012005;28;20053;-71
2023/05/25 04:20:03;;;;;;;28.25;11.02;;;6.20;99.90;;;;;;5011793;28;20122;-69
2023/05/25 04:22:29;;;;;;;30.00;9.60;;;;;;;;;;5003341;28;20064;-70
2023/05/25 04:24:55;;;;;;;25.13;10.80;;;;;;;;;;5006922;28;20585;-71
2023/05/25 04:27:21;;;;;;;29.30;10.50;;;;;;;;;;5011202;28;20088;-73
2023/05/25 04:29:49;;;;;;;30.08;11.85;;;;;;;;;;4995060;28;20057;-72
2023/05/25 04:32:16;;;;;;;26.63;10.95;;;;;;;;;;4992011;28;20049;-70
2023/05/25 04:34:45;;;;;;;29.27;11.65;;;8.50;99.90;;;;;;4987217;28;20638;-71
2023/05/25 04:37:11;;;;;;;23.52;9.75;;;;;;;;;;5007171;28;20069;-70
2023/05/25 04:39:38;;;;;;;22.02;9.63;;;;;;;;;;4986694;28;20057;-72
2023/05/25 04:42:04;;;;;;;22.60;9.95;;;9.10;99.90;;;;;;5004422;28;20042;-68
2023/05/25 04:44:31;;;;;;;18.85;7.75;;;;;;;;;;5008564;28;20114;-71
2023/05/25 04:47:00;;;;;;;14.65;7.72;;;;;;;;;;4995223;28;20930;-67
2023/05/25 04:49:26;;;;;;;18.50;7.68;;;;;;;;;;5009043;28;20850;-69
2023/05/25 04:51:53;;;;;;;17.55;8.02;;;;;;;;;;5007908;28;20154;-71
2023/05/25 04:54:19;;;;;;;22.15;9.43;;;;;;;;;;4997342;28;20518;-67
2023/05/25 04:56:45;;;;;;;17.77;7.28;;;;;;;;;;5007443;28;20052;-70
2023/05/25 04:59:11;;;;;;;12.85;7.35;;;;;;;;;;5012002;28;20805;-69
2023/05/25 05:01:43;;;;;;;21.50;7.93;;;;;;;;;;4989454;28;20554;-72
2023/05/25 05:04:09;;;;;;;17.50;8.10;;;;;;;;;;4957253;28;20460;-72
2023/05/25 05:06:36;;;;;;;12.40;7.72;;;;;;;;;;4984741;28;20053;-69
2023/05/25 05:09:02;;;;;;;22.55;9.40;;;10.10;99.90;;;;;;4995763;28;20084;-74
2023/05/25 05:11:28;;;;;;;20.40;8.02;;;;;;;;;;4975389;28;20069;-73
2023/05/25 05:13:55;;;;;;;21.17;9.77;;;10.30;99.90;;;;;;4986470;28;20683;-70
2023/05/25 05:16:21;;;;;;;18.92;8.73;;;;;;;;;;4995175;28;20048;-70
2023/05/25 05:18:47;;;;;;;15.20;7.00;;;;;;;;;;4988127;28;20061;-71
2023/05/25 05:21:13;;;;;;;16.08;7.70;;;;;;;;;;4994175;28;20077;-74
2023/05/25 05:23:42;;;;;;;20.77;8.23;;;11.00;99.90;;;;;;4963682;28;20143;-72
2023/05/25 05:26:10;;;;;;;16.30;7.82;;;;;;;;;;4990107;28;20061;-69
2023/05/25 05:28:36;;;;;;;18.70;7.95;;;;;;;;;;4979151;28;20185;-70
2023/05/25 05:31:02;;;;;;;17.45;8.10;;;;;;;;;;4992062;28;20088;-72
2023/05/25 05:33:30;;;;;;;15.75;7.07;;;;;;;;;;5000110;28;20530;-74
2023/05/25 05:35:56;;;;;;;16.95;6.72;;;;;;;;;;4992247;28;20057;-72
2023/05/25 05:38:22;;;;;;;15.25;7.13;;;;;;;;;;5010381;28;20132;-69
2023/05/25 05:40:48;;;;;;;15.02;6.97;;;;;;;;;;5007258;28;20606;-70
2023/05/25 05:43:14;;;;;;;15.15;6.43;;;;;;;;;;4997427;28;20042;-70
2023/05/25 05:45:40;;;;;;;17.23;6.65;;;15.00;99.90;;;;;;4995221;28;20503;-73
2023/05/25 05:48:09;;;;;;;13.15;6.28;;;16.50;99.90;;;;;;4980741;28;20046;-74
2023/05/25 05:50:39;;;;;;;14.15;6.32;;;17.90;99.60;;;;;;4999578;28;20068;-73
2023/05/25 05:53:05;;;;;;;12.13;4.75;;;18.60;97.50;;;;;;5009755;28;20053;-69
2023/05/25 05:55:31;;;;;;;11.52;4.70;;;18.60;98.70;;;;;;4995584;28;20212;-72
2023/05/25 05:57:57;;;;;;;10.70;4.15;;;18.60;95.90;;;;;;4995845;28;20052;-74
2023/05/25 06:00:24;;;;;;;12.40;3.90;;;;;;;;;;5000831;28;20058;-74
2023/05/25 06:02:50;;;;;;;13.73;4.50;;;;;;;;;;4983416;28;20196;-73
2023/05/25 06:05:16;;;;;;;14.80;4.53;;;19.20;92.80;;;;;;5007099;28;20076;-73
2023/05/25 06:07:42;;;;;;;9.50;4.28;;;;;;;;;;5008286;28;20064;-71
2023/05/25 06:10:08;;;;;;;12.63;4.90;;;18.40;93.70;;;;;;4998953;28;20070;-69
2023/05/25 06:12:34;;;;;;;10.63;4.78;;;;;;;;;;5003420;28;20123;-75
2023/05/25 06:15:01;;;;;;;8.73;3.38;;;;;;;;;;4997879;28;20445;-75
2023/05/25 06:17:28;;;;;;;13.80;3.72;;;;;;;;;;4998487;28;20049;-74
2023/05/25 06:19:54;;;;;;;12.05;3.58;;;17.40;95.00;;;;;;4992168;28;20064;-71
2023/05/25 06:22:22;;;;;;;8.38;2.90;;;;;;;;;;5000068;28;20056;-76
2023/05/25 06:24:48;;;;;;;11.88;2.75;;;;;;;;;;5000471;28;20084;-76
2023/05/25 06:27:16;;;;;;;9.43;2.60;;;;;;;;;;5000357;28;20101;-74
2023/05/25 06:29:42;;;;;;;13.65;3.17;;;;;;;;;;4989969;28;20442;-74
2023/05/25 06:32:09;;;;;;;9.82;3.15;;;;;;;;;;5007500;28;20085;-70
2023/05/25 06:34:36;;;;;;;8.95;2.78;;;;;;;;;;4994070;28;20103;-75
2023/05/25 06:37:02;;;;;;;12.60;2.65;;;;;;;;;;5005363;28;20076;-74
2023/05/25 06:39:28;;;;;;;10.93;2.83;;;;;;;;;;4991691;28;21002;-74
2023/05/25 06:41:54;;;;;;;11.55;2.70;;;;;;;;;;5002590;28;20053;-76
2023/05/25 06:44:21;;;;;;;10.07;2.80;;;;;;;;;;5011433;28;20052;-75
2023/05/25 06:46:47;;;;;;;15.50;3.83;;;;;;;;;;5003680;28;20046;-75
2023/05/25 06:49:13;;;;;;;13.25;3.22;;;;;;;;;;4990475;28;20049;-71
2023/05/25 06:51:39;;;;;;;10.02;2.22;;;;;;;;;;5000510;28;20081;-70
2023/05/25 06:54:07;;;;;;;10.77;1.83;;;;;;;;;;5006269;28;20060;-71
2023/05/25 06:56:33;;;;;;;10.15;2.45;;;;;;;;;;4982463;28;20060;-71
2023/05/25 06:59:00;;;;;;;12.88;2.50;;;;;;;;;;5009153;28;20138;-73
2023/05/25 07:01:26;;;;;;;9.50;2.85;;;;;;;;;;5000357;28;20073;-74
2023/05/25 07:03:52;;;;;;;15.88;2.65;;;;;;;;;;4998426;28;20046;-74
2023/05/25 07:06:18;;;;;;;7.90;1.40;;;;;;;;;;5004597;28;20336;-74
2023/05/25 07:08:44;;;;;;;9.43;1.75;;;;;;;;;;4987812;28;20049;-72
2023/05/25 07:11:12;;;;;;;9.43;2.08;;;;;;;;;;5004329;28;20066;-71
2023/05/25 07:13:38;;;;;;;13.90;2.17;;;;;;;;;;5004184;28;20128;-76
2023/05/25 07:16:05;;;;;;;13.95;2.50;;;;;;;;;;4988866;28;20049;-77
2023/05/25 07:18:31;;;;;;;12.82;2.50;;;;;;;;;;4990043;28;20076;-74
2023/05/25 07:20:58;;;;;;;10.68;1.90;;;;;;;;;;5006471;28;20080;-72
2023/05/25 07:23:24;;;;;;;14.57;2.47;;;;;;;;;;5006175;28;20060;-74
2023/05/25 07:25:50;;;;;;;9.38;1.90;;;;;;;;;;5006952;28;20574;-73
2023/05/25 07:28:16;;;;;;;10.23;2.13;;;;;;;;;;5006845;28;20128;-69
2023/05/25 07:30:42;;;;;;;12.30;2.20;;;;;;;;;;5005561;28;20490;-72
2023/05/25 07:33:08;;;;;;;10.73;1.98;;;;;;;;;;5006499;28;20049;-70
2023/05/25 07:35:34;;;;;;;8.02;1.67;;;;;;;;;;5006427;28;20054;-70
2023/05/25 07:38:05;;;;;;;13.50;2.05;;;24.80;63.70;;;;;;5007119;28;20110;-73
2023/05/25 07:40:32;;;;;;;9.67;1.87;;;;;;;;;;4988362;28;20423;-74
2023/05/25 07:42:58;;;;;;;10.40;1.95;;;;;;;;;;4996375;28;20068;-74
2023/05/25 07:45:24;;;;;;;13.70;2.35;;;;;;;;;;4995941;28;20060;-72
2023/05/25 07:47:50;;;;;;;15.27;2.60;;;;;;;;;;5012220;28;20863;-71
2023/05/25 07:50:16;;;;;;;10.43;2.17;;;;;;;;;;5004570;28;20155;-69
2023/05/25 07:52:43;;;;;;;12.57;2.47;;;;;;;;;;5000125;28;20525;-76
2023/05/25 07:55:09;;;;;;;15.43;2.33;;;;;;;;;;5012670;28;20057;-73
2023/05/25 07:57:35;;;;;;;14.60;2.63;;;;;;;;;;4992700;28;20054;-71
2023/05/25 08:00:03;;;;;;;13.07;2.92;;;;;;;;;;5004002;28;20045;-75
2023/05/25 08:02:30;;;;;;;16.17;3.50;;;;;;;;;;4998717;28;20045;-72
2023/05/25 08:04:56;;;;;;;17.20;2.65;;;;;;;;;;5012894;28;20053;-71
2023/05/25 08:07:23;;;;;;;14.82;2.65;;;;;;;;;;5004073;28;20061;-71
2023/05/25 08:09:49;;;;;;;11.35;2.63;;;;;;;;;;4994986;28;20083;-75
2023/05/25 08:12:16;;;;;;;10.55;2.88;;;;;;;;;;5011724;28;20081;-73
2023/05/25 08:14:42;;;;;;;9.30;2.00;;;;;;;;;;4988575;28;20095;-75
2023/05/25 08:17:09;;;;;;;10.57;2.67;;;;;;;;;;5011724;28;20519;-72
2023/05/25 08:19:35;;;;;;;11.07;3.05;;;;;;;;;;5011263;28;20080;-71
2023/05/25 08:22:01;;;;;;;12.70;2.58;;;;;;;;;;5000898;28;20150;-73
2023/05/25 08:24:27;;;;;;;13.13;2.65;;;32.60;59.80;;;;;;4992681;28;20056;-71
2023/05/25 08:26:53;;;;;;;10.88;2.30;;;;;;;;;;5010007;28;20050;-71
2023/05/25 08:29:20;;;;;;;13.00;3.33;;;;;;;;;;4995367;28;20064;-71
2023/05/25 08:31:48;;;;;;;13.20;2.83;;;;;;;;;;5011302;28;20049;-73
2023/05/25 08:34:15;;;;;;;11.20;2.50;;;;;;;;;;5009135;28;20175;-70
2023/05/25 08:36:41;;;;;;;10.88;1.92;;;;;;;;;;5011172;28;20063;-72
2023/05/25 08:39:08;;;;;;;13.10;2.88;;;;;;;;;;4998486;28;20053;-70
2023/05/25 08:41:35;;;;;;;12.02;2.60;;;30.20;47.20;;;;;;5011601;28;20153;-75
2023/05/25 08:44:05;;;;;;;13.68;3.10;;;;;;;;;;5007864;28;20045;-72
2023/05/25 08:46:31;;;;;;;11.68;2.85;;;;;;;;;;5000936;28;20523;-73
2023/05/25 08:49:08;;;;;;;10.75;2.72;;;29.20;47.60;;;;;;5007625;28;20494;-73
2023/05/25 08:51:41;;;;;;;10.77;1.98;;;28.50;48.80;;;;;;5011982;28;20057;-70
2023/05/25 08:54:09;;;;;;;14.63;3.42;;;27.90;52.00;;;;;;5007120;28;20141;-72
2023/05/25 08:57:06;;;;;;;10.98;2.45;;;26.30;48.70;;;;;;5004538;28;20056;-71
2023/05/25 08:59:42;;;;;;;15.05;2.70;;;;;;;;;;5001967;28;20050;-72
2023/05/25 09:02:18;;;;;;;15.20;2.78;;;;;;;;;;5011211;28;20046;-73
2023/05/25 09:04:44;;;;;;;12.13;2.70;;;;;;;;;;5011021;28;20056;-73
2023/05/25 09:07:11;;;;;;;14.57;3.15;;;;;;;;;;5011183;28;20144;-74
2023/05/25 09:09:38;;;;;;;11.63;3.28;;;;;;;;;;4992547;28;20100;-74
2023/05/25 09:12:05;;;;;;;14.10;3.53;;;26.00;50.20;;;;;;4999093;28;20057;-73
2023/05/25 09:14:32;;;;;;;11.57;2.30;;;25.60;50.60;;;;;;4983351;28;20403;-74
2023/05/25 09:16:58;;;;;;;12.95;3.42;;;;;;;;;;5011222;28;20411;-73
2023/05/25 09:19:24;;;;;;;15.95;3.20;;;;;;;;;;5010862;28;20049;-74
2023/05/25 09:21:50;;;;;;;16.65;4.05;;;;;;;;;;5010949;28;20045;-74
2023/05/25 09:24:17;;;;;;;14.38;3.28;;;;;;;;;;4998294;28;20053;-74
2023/05/25 09:26:47;;;;;;;14.10;2.72;;;25.20;52.10;;;;;;5010821;28;20054;-72
2023/05/25 09:29:13;;;;;;;13.50;2.75;;;26.20;52.20;;;;;;5011341;28;20072;-72
2023/05/25 09:31:40;;;;;;;11.77;3.00;;;;;;;;;;4990966;28;20053;-74
2023/05/25 09:34:12;;;;;;;11.98;3.20;;;27.10;50.80;;;;;;4985212;28;20050;-72
2023/05/25 09:36:43;;;;;;;15.95;3.53;;;26.90;49.40;;;;;;5005511;28;20053;-73
2023/05/25 09:39:10;;;;;;;13.68;3.67;;;25.60;49.60;;;;;;5002914;28;20037;-74
2023/05/25 09:41:36;;;;;;;13.98;3.05;;;28.00;50.40;;;;;;4995009;28;20479;-73
2023/05/25 09:44:03;;;;;;;11.15;2.83;;;29.00;48.40;;;;;;4987504;28;20148;-71
2023/05/25 09:46:35;;;;;;;13.82;3.08;;;;;;;;;;5002174;28;20049;-75
2023/05/25 09:49:01;;;;;;;13.13;4.10;;;;;;;;;;5003160;28;20080;-74
2023/05/25 09:51:29;;;;;;;14.60;2.75;;;;;;;;;;5001159;28;20065;-73
2023/05/25 09:53:55;;;;;;;16.13;4.32;;;;;;;;;;5003767;28;20084;-72
2023/05/25 09:56:22;;;;;;;13.43;2.30;;;29.50;50.50;;;;;;5002606;28;20045;-71
2023/05/25 09:58:51;;;;;;;13.45;2.65;;;;;;;;;;5002120;28;20761;-72
2023/05/25 10:01:18;;;;;;;15.05;2.85;;;;;;;;;;5002510;28;20046;-73
2023/05/25 10:03:47;;;;;;;12.43;3.30;;;29.30;45.80;;;;;;4995589;28;20498;-73
2023/05/25 10:06:19;;;;;;;11.13;2.90;;;25.10;42.10;;;;;;5003081;28;20129;-72
2023/05/25 10:08:47;;;;;;;13.95;3.40;;;28.20;45.70;;;;;;4986598;28;20045;-71
2023/05/25 10:11:14;;;;;;;12.10;3.17;;;;;;;;;;5002021;28;21053;-70
2023/05/25 10:13:40;;;;;;;17.65;2.88;;;;;;;;;;5003174;28;20049;-74
2023/05/25 10:16:11;;;;;;;11.65;2.50;;;26.50;46.30;;;;;;4987415;28;20633;-74
2023/05/25 10:18:41;;;;;;;;;;;26.50;46.90;;;;;;4985987;28;20045;-74
2023/05/25 10:21:08;;;;;;;17.42;3.15;;;25.70;48.00;;;;;;5002871;28;20016;-72
2023/05/25 10:23:37;;;;;;;9.25;2.15;;;;;;;;;;4988004;28;20045;-72
2023/05/25 10:26:05;;;;;;;14.23;2.80;;;25.90;48.30;;;;;;4994915;28;20187;-72
2023/05/25 10:28:35;;;;;;;13.98;3.22;;;;;;;;;;5002706;28;20049;-74
2023/05/25 10:31:02;;;;;;;13.13;3.03;;;26.50;46.90;;;;;;5002423;28;20579;-74
2023/05/25 10:33:29;;;;;;;11.52;3.45;;;26.80;47.30;;;;;;4986809;28;20136;-72
2023/05/25 10:35:55;;;;;;;11.35;2.45;;;;;;;;;;5003169;28;20061;-70
2023/05/25 10:38:22;;;;;;;16.27;2.88;;;;;;;;;;5001728;28;20093;-72
2023/05/25 10:40:52;;;;;;;14.95;2.97;;;;;;;;;;5003138;28;20843;-72
2023/05/25 10:43:18;;;;;;;12.55;2.72;;;;;;;;;;5000649;28;20057;-72
2023/05/25 10:45:45;;;;;;;11.88;2.25;;;;;;;;;;4985066;28;20240;-74
2023/05/25 10:48:11;;;;;;;11.80;3.03;;;;;;;;;;5001473;28;20378;-70
2023/05/25 10:50:37;;;;;;;11.82;3.05;;;;;;;;;;5001141;28;20046;-73
2023/05/25 10:53:08;;;;;;;10.52;2.22;;;;;;;;;;5002553;28;20114;-71
2023/05/25 10:55:48;;;;;;;12.30;2.67;;;;;;;;;;5001395;28;20156;-72
2023/05/25 10:58:15;;;;;;;14.82;2.88;;;;;;;;;;4999600;28;20048;-72
2023/05/25 11:00:42;;;;;;;13.32;3.10;;;24.70;48.30;;;;;;5001966;28;20144;-69
2023/05/25 11:03:08;;;;;;;13.13;2.63;;;;;;;;;;4986684;28;20081;-73
2023/05/25 11:05:34;;;;;;;16.15;2.40;;;;;;;;;;5002099;28;20621;-72
2023/05/25 11:08:03;;;;;;;11.35;2.50;;;23.80;50.10;;;;;;5000348;28;20060;-75
2023/05/25 11:10:42;;;;;;;16.70;3.85;;;;;;;;;;5002396;28;20577;-72
2023/05/25 11:13:20;;;;;;;11.80;2.83;;;23.30;51.50;;;;;;5003455;28;20577;-72
2023/05/25 11:16:05;;;;;;;12.27;3.35;;;23.10;52.90;;;;;;5002228;28;20052;-74
2023/05/25 11:18:42;;;;;;;13.32;2.75;;;23.10;52.60;;;;;;5000959;28;20053;-70
2023/05/25 11:21:34;;;;;;;10.95;2.42;;;22.80;54.80;;;;;;4994284;28;20045;-72
2023/05/25 11:24:05;;;;;;;;;;;22.80;53.00;;;;;;5000353;28;20057;-71
2023/05/25 11:26:35;;;;;;;9.48;2.67;;;;;;;;;;5002457;28;19926;-71
2023/05/25 11:29:13;;;;;;;16.60;2.85;;;24.70;54.30;;;;;;5001373;28;20807;-72
2023/05/25 11:31:40;;;;;;;13.55;3.05;;;;;;;;;;4971804;28;20052;-75
2023/05/25 11:34:08;;;;;;;17.02;3.35;;;;;;;;;;5001543;28;20045;-72
2023/05/25 11:36:35;;;;;;;17.33;2.75;;;22.30;52.70;;;;;;5001938;28;20053;-73
2023/05/25 11:39:06;;;;;;;18.33;3.28;;;22.10;54.20;;;;;;5001860;28;20055;-72
2023/05/25 11:41:32;;;;;;;13.13;3.17;;;;;;;;;;4982023;28;20092;-73
2023/05/25 11:44:05;;;;;;;15.60;3.42;;;21.60;53.80;;;;;;4987373;28;20415;-70
2023/05/25 11:46:32;;;;;;;14.65;2.92;;;;;;;;;;4988523;28;20054;-69
2023/05/25 11:48:59;;;;;;;17.35;3.10;;;21.60;55.30;;;;;;4995809;28;20049;-76
2023/05/25 11:51:26;;;;;;;14.88;3.08;;;;;;;;;;4999313;28;20057;-74
2023/05/25 11:53:52;;;;;;;18.17;3.45;;;;;;;;;;5011904;28;20056;-72
2023/05/25 11:56:19;;;;;;;16.10;3.67;;;21.30;56.40;;;;;;4995423;28;20511;-73
2023/05/25 11:58:46;;;;;;;15.20;3.17;;;21.30;56.00;;;;;;5003942;28;20056;-72
2023/05/25 12:01:19;;;;;;;14.13;3.28;;;21.40;56.40;;;;;;5009806;28;20045;-72
2023/05/25 12:03:52;;;;;;;13.15;3.65;;;21.50;56.70;;;;;;5007826;28;20045;-75
2023/05/25 12:06:35;;;;;;;15.88;2.83;;;21.30;56.30;;;;;;4997834;28;20068;-71
2023/05/25 12:09:05;;;;;;;14.65;3.28;;;21.20;55.60;;;;;;5001130;28;20378;-74
2023/05/25 12:11:33;;;;;;;21.80;4.03;;;20.80;55.90;;;;;;4994034;28;20045;-74
2023/05/25 12:14:00;;;;;;;14.20;3.00;;;20.50;56.10;;;;;;4982012;28;20196;-69
2023/05/25 12:16:27;;;;;;;14.77;3.17;;;;;;;;;;5010959;28;20053;-75
2023/05/25 12:18:53;;;;;;;19.23;4.35;;;20.10;57.70;;;;;;5011749;28;20049;-76
2023/05/25 12:21:21;;;;;;;15.40;3.38;;;19.90;57.70;;;;;;5011441;28;20049;-73
2023/05/25 12:23:47;;;;;;;13.70;2.80;;;;;;;;;;4987404;28;20174;-73
2023/05/25 12:26:15;;;;;;;17.13;3.35;;;19.60;57.70;;;;;;4999065;28;20717;-70
2023/05/25 12:28:57;;;;;;;17.35;3.25;;;;;;;;;;5002400;28;20187;-70
2023/05/25 12:31:25;;;;;;;16.08;3.10;;;;;;;;;;5003759;28;20129;-75
2023/05/25 12:34:08;;;;;;;17.50;4.18;;;;;;;;;;5006097;28;20057;-73
2023/05/25 12:36:41;;;;;;;15.07;3.38;;;;;;;;;;5001579;28;20056;-76
2023/05/25 12:39:08;;;;;;;14.82;3.45;;;;;;;;;;4991799;28;20050;-76
2023/05/25 12:41:48;;;;;;;15.50;3.33;;;20.50;60.40;;;;;;5004020;28;20053;-74
2023/05/25 12:44:31;;;;;;;17.95;2.83;;;19.90;58.70;;;;;;5002670;28;20415;-72
2023/05/25 12:47:18;;;;;;;16.88;2.90;;;22.90;60.50;;;;;;4988474;28;20049;-72
2023/05/25 12:49:50;;;;;;;20.05;3.58;;;;;;;;;;5004550;28;20055;-72
2023/05/25 12:52:36;;;;;;;19.83;4.32;;;19.60;58.40;;;;;;4987752;28;20107;-73
2023/05/25 12:55:30;;;;;;;17.55;4.85;;;19.40;59.30;;;;;;4996698;28;20053;-73
2023/05/25 12:57:58;;;;;;;18.42;3.22;;;19.10;59.80;;;;;;5001254;28;20144;-72
2023/05/25 13:00:24;;;;;;;15.15;2.95;;;;;;;;;;5002919;28;20463;-74
2023/05/25 13:02:50;;;;;;;19.05;3.83;;;;;;;;;;4997546;28;20042;-75
2023/05/25 13:05:26;;;;;;;17.83;3.92;;;;;;;;;;4980238;28;20673;-72
2023/05/25 13:07:54;;;;;;;16.73;2.83;;;19.40;60.00;;;;;;5001871;28;20822;-71
2023/05/25 13:10:20;;;;;;;18.17;3.00;;;;;;;;;;5010988;28;20119;-75
2023/05/25 13:12:47;;;;;;;20.10;3.22;;;;;;;;;;5003667;28;20046;-73
2023/05/25 13:15:14;;;;;;;18.23;3.95;;;;;;;;;;4998073;28;20045;-77
2023/05/25 13:17:41;;;;;;;28.08;3.30;;;;;;;;;;5013030;28;20140;-74
2023/05/25 13:20:07;;;;;;;22.92;4.03;;;;;;;;;;5015236;28;20160;-72
2023/05/25 13:22:33;;;;;;;16.20;3.55;;;;;;;;;;5011923;28;20060;-73
2023/05/25 13:25:00;;;;;;;15.85;3.28;;;;;;;;;;5005875;28;20629;-77
2023/05/25 13:27:26;;;;;;;16.88;3.30;;;;;;;;;;5014489;28;20046;-75
2023/05/25 13:29:52;;;;;;;20.88;3.55;;;;;;;;;;4988926;28;20447;-74
2023/05/25 13:32:19;;;;;;;18.08;3.40;;;;;;;;;;5010011;28;20183;-73
2023/05/25 13:34:45;;;;;;;22.20;4.18;;;;;;;;;;4992573;28;20103;-75
2023/05/25 13:37:12;;;;;;;17.67;2.72;;;;;;;;;;4997302;28;20067;-74
2023/05/25 13:39:38;;;;;;;18.45;4.93;;;;;;;;;;5014814;28;20442;-73
2023/05/25 13:42:04;;;;;;;19.17;4.07;;;;;;;;;;5005053;28;20041;-76
2023/05/25 13:44:32;;;;;;;18.92;4.13;;;;;;;;;;5015422;28;20057;-74
2023/05/25 13:46:59;;;;;;;18.67;3.33;;;;;;;;;;5008767;28;20058;-74
2023/05/25 13:49:25;;;;;;;20.23;3.22;;;;;;;;;;5001565;28;20509;-74
2023/05/25 13:51:51;;;;;;;18.75;3.40;;;;;;;;;;5002447;28;20136;-71
2023/05/25 13:54:17;;;;;;;18.45;3.25;;;;;;;;;;5014041;28;20084;-73
2023/05/25 13:56:43;;;;;;;18.83;2.97;;;;;;;;;;4996185;28;20724;-71
2023/05/25 13:59:10;;;;;;;18.25;3.08;;;;;;;;;;5007735;28;20050;-72
2023/05/25 14:01:36;;;;;;;22.52;4.35;;;;;;;;;;5010838;28;20128;-73
2023/05/25 14:04:03;;;;;;;18.15;3.38;;;;;;;;;;4999578;28;20054;-78